createdAt,value
2019-01-02T00:00:05.243Z,102354.31
2019-01-02T00:02:34.545Z,102355.66
2019-01-02T00:05:03.924Z,102392.80
2019-01-02T00:07:33.262Z,102364.83
2019-01-02T00:10:02.539Z,102357.41
2019-01-02T00:12:31.815Z,102379.23
2019-01-02T00:15:01.136Z,102370.97
2019-01-02T00:17:30.443Z,102366.48
2019-01-02T00:19:59.721Z,102400.86
2019-01-02T00:22:29.004Z,102396.27
2019-01-02T00:24:58.249Z,102379.94
2019-01-02T00:27:27.519Z,102374.99
2019-01-02T00:29:56.830Z,102372.33
2019-01-02T00:32:26.135Z,102374.91
2019-01-02T00:34:55.483Z,102385.41
2019-01-02T00:37:24.736Z,102373.58
2019-01-02T00:39:54.071Z,102370.58
2019-01-02T00:42:23.341Z,102393.69
2019-01-02T00:44:52.680Z,102386.37
2019-01-02T00:47:21.953Z,102371.11
2019-01-02T00:49:51.297Z,102375.87
2019-01-02T00:52:20.649Z,102379.84
2019-01-02T00:54:49.989Z,102380.32
2019-01-02T00:57:19.359Z,102379.89
2019-01-02T00:59:48.737Z,102385.17
2019-01-02T01:02:18.002Z,102385.22
2019-01-02T01:04:47.263Z,102382.35
2019-01-02T01:07:16.541Z,102387.20
2019-01-02T01:09:45.865Z,102399.47
2019-01-02T01:12:15.163Z,102395.55
2019-01-02T01:14:44.457Z,102399.51
2019-01-02T01:17:13.772Z,102397.86
2019-01-02T01:19:43.168Z,102390.53
2019-01-02T01:22:12.502Z,102402.36
2019-01-02T01:24:41.740Z,102414.19
2019-01-02T01:27:11.084Z,102416.41
2019-01-02T01:29:40.372Z,102422.09
2019-01-02T01:32:09.693Z,102430.42
2019-01-02T01:34:38.960Z,102416.46
2019-01-02T01:37:08.218Z,102425.63
2019-01-02T01:39:37.464Z,102431.25
2019-01-02T01:42:06.884Z,102439.59
2019-01-02T01:44:36.173Z,102447.02
2019-01-02T01:47:05.419Z,102448.80
2019-01-02T01:49:34.793Z,102444.48
2019-01-02T01:52:04.036Z,102448.81
2019-01-02T01:54:33.287Z,102459.34
2019-01-02T01:57:02.583Z,102469.85
2019-01-02T01:59:31.904Z,102465.53
2019-01-02T02:02:01.178Z,102467.28
2019-01-02T02:04:30.433Z,102476.02
2019-01-02T02:06:59.777Z,102484.30
2019-01-02T02:09:29.056Z,102476.94
2019-01-02T02:11:58.302Z,102473.44
2019-01-02T02:14:27.567Z,102487.89
2019-01-02T02:16:56.889Z,102488.38
2019-01-02T02:19:26.177Z,102488.42
2019-01-02T02:21:55.495Z,102492.44
2019-01-02T02:24:24.710Z,102495.88
2019-01-02T02:26:53.964Z,102497.30
2019-01-02T02:29:23.296Z,102504.67
2019-01-02T02:31:52.655Z,102509.13
2019-01-02T02:34:21.903Z,102508.30
2019-01-02T02:36:51.201Z,102502.31
2019-01-02T02:39:20.507Z,102510.57
2019-01-02T02:41:49.857Z,102509.30
2019-01-02T02:44:19.188Z,102510.63
2019-01-02T02:46:48.520Z,102515.46
2019-01-02T02:49:17.909Z,102517.69
2019-01-02T02:51:47.221Z,102529.57
2019-01-02T02:54:16.491Z,102524.29
2019-01-02T02:56:45.743Z,102530.41
2019-01-02T02:59:15.001Z,102531.33
2019-01-02T03:01:44.307Z,102542.68
2019-01-02T03:04:13.545Z,102542.20
2019-01-02T03:06:43.948Z,102529.97
2019-01-02T03:09:12.229Z,102547.39
2019-01-02T03:11:41.467Z,102552.11
2019-01-02T03:14:10.823Z,102560.36
2019-01-02T03:16:40.091Z,102554.25
2019-01-02T03:19:09.382Z,102566.53
2019-01-02T03:21:38.610Z,102574.88
2019-01-02T03:24:07.871Z,102580.11
2019-01-02T03:26:37.127Z,102574.39
2019-01-02T03:29:06.401Z,102581.33
2019-01-02T03:31:35.653Z,102583.95
2019-01-02T03:34:04.889Z,102587.48
2019-01-02T03:36:34.156Z,102608.51
2019-01-02T03:39:03.654Z,102590.75
2019-01-02T03:41:32.911Z,102600.26
2019-01-02T03:44:02.145Z,102596.28
2019-01-02T03:46:31.382Z,102606.72
2019-01-02T03:49:00.707Z,102604.05
2019-01-02T03:51:29.985Z,102608.91
2019-01-02T03:53:59.330Z,102606.77
2019-01-02T03:56:28.603Z,102606.62
2019-01-02T03:58:57.918Z,102616.72
2019-01-02T04:01:27.360Z,102614.09
2019-01-02T04:03:56.613Z,102613.66
2019-01-02T04:06:26.015Z,102611.81
2019-01-02T04:08:55.291Z,102620.54
2019-01-02T04:11:24.616Z,102623.21
2019-01-02T04:13:53.886Z,102631.86
2019-01-02T04:16:23.230Z,102629.28
2019-01-02T04:18:52.556Z,102631.95
2019-01-02T04:21:21.824Z,102632.38
2019-01-02T04:23:51.086Z,102637.58
2019-01-02T04:26:20.440Z,102646.80
2019-01-02T04:28:49.860Z,102641.52
2019-01-02T04:31:19.237Z,102645.84
2019-01-02T04:33:48.515Z,102640.31
2019-01-02T04:36:17.837Z,102651.56
2019-01-02T04:38:47.122Z,102638.17
2019-01-02T04:41:16.442Z,102619.33
2019-01-02T04:43:45.738Z,102629.34
2019-01-02T04:46:15.049Z,102637.68
2019-01-02T04:48:44.366Z,102639.48
2019-01-02T04:51:13.668Z,102679.62
2019-01-02T04:53:42.963Z,102647.83
2019-01-02T04:56:12.259Z,102642.63
2019-01-02T04:58:41.514Z,102640.80
2019-01-02T05:01:14.700Z,102653.73
2019-01-02T05:03:43.938Z,102654.66
2019-01-02T05:06:13.203Z,102653.73
2019-01-02T05:08:42.438Z,102659.84
2019-01-02T05:11:11.696Z,102651.98
2019-01-02T05:13:40.936Z,102653.30
2019-01-02T05:16:10.187Z,102659.41
2019-01-02T05:18:39.533Z,102654.56
2019-01-02T05:21:08.791Z,102664.23
2019-01-02T05:23:38.026Z,102663.50
2019-01-02T05:26:07.287Z,102647.82
2019-01-02T05:28:36.530Z,102656.03
2019-01-02T05:31:10.059Z,102664.86
2019-01-02T05:33:39.338Z,102658.17
2019-01-02T05:36:08.635Z,102661.27
2019-01-02T05:38:37.867Z,102674.37
2019-01-02T05:41:07.117Z,102683.02
2019-01-02T05:43:36.471Z,102683.11
2019-01-02T05:46:05.745Z,102678.80
2019-01-02T05:48:35.018Z,102689.22
2019-01-02T05:51:04.271Z,102684.86
2019-01-02T05:53:33.510Z,102693.92
2019-01-02T05:56:02.732Z,102692.61
2019-01-02T05:58:31.981Z,102693.00
2019-01-02T06:01:01.228Z,102703.53
2019-01-02T06:03:30.518Z,102702.71
2019-01-02T06:05:59.759Z,102703.55
2019-01-02T06:08:29.021Z,102705.78
2019-01-02T06:10:58.369Z,102703.14
2019-01-02T06:13:27.611Z,102704.02
2019-01-02T06:15:56.943Z,102705.78
2019-01-02T06:18:26.184Z,102721.02
2019-01-02T06:20:55.515Z,102714.07
2019-01-02T06:23:24.753Z,102734.98
2019-01-02T06:25:54.063Z,102728.39
2019-01-02T06:28:23.397Z,102731.05
2019-01-02T06:30:52.764Z,102730.61
2019-01-02T06:33:22.096Z,102726.69
2019-01-02T06:35:51.376Z,102734.53
2019-01-02T06:38:20.676Z,102754.64
2019-01-02T06:40:49.949Z,102753.77
2019-01-02T06:43:19.225Z,102751.09
2019-01-02T06:45:48.578Z,102762.37
2019-01-02T06:48:17.798Z,102769.77
2019-01-02T06:50:47.120Z,102774.55
2019-01-02T06:53:16.470Z,102773.26
2019-01-02T06:55:45.730Z,102781.88
2019-01-02T06:58:15.072Z,102787.54
2019-01-02T07:00:44.792Z,102793.22
2019-01-02T07:03:14.047Z,102794.98
2019-01-02T07:05:43.346Z,102789.73
2019-01-02T07:08:12.888Z,102803.69
2019-01-02T07:10:42.308Z,102815.80
2019-01-02T07:13:11.587Z,102816.20
2019-01-02T07:15:40.860Z,102820.67
2019-01-02T07:18:10.151Z,102831.59
2019-01-02T07:20:39.397Z,102848.55
2019-01-02T07:23:08.703Z,102838.45
2019-01-02T07:25:37.948Z,102857.17
2019-01-02T07:28:07.189Z,102853.30
2019-01-02T07:30:36.451Z,102860.29
2019-01-02T07:33:05.688Z,102861.98
2019-01-02T07:36:22.921Z,102892.45
2019-01-02T07:39:52.394Z,102881.11
2019-01-02T07:42:58.184Z,102874.88
2019-01-02T07:45:49.084Z,102881.88
2019-01-02T07:48:55.607Z,102894.08
2019-01-02T07:52:12.590Z,102901.44
2019-01-02T07:55:17.856Z,102909.22
2019-01-02T07:58:30.652Z,102910.12
2019-01-02T08:01:54.476Z,102910.92
2019-01-02T08:04:48.127Z,102918.39
2019-01-02T08:08:08.800Z,102928.05
2019-01-02T08:11:15.560Z,102935.20
2019-01-02T08:14:38.131Z,102929.59
2019-01-02T08:17:39.238Z,102936.82
2019-01-02T08:20:52.380Z,102935.52
2019-01-02T08:24:11.741Z,102937.16
2019-01-02T08:27:12.423Z,102946.20
2019-01-02T08:29:57.313Z,102945.77
2019-01-02T08:33:04.083Z,102955.95
2019-01-02T08:36:15.244Z,102951.95
2019-01-02T08:39:35.547Z,102968.48
2019-01-02T08:42:40.599Z,102966.61
2019-01-02T08:46:09.523Z,102981.95
2019-01-02T08:49:22.471Z,102982.31
2019-01-02T08:52:23.053Z,102995.77
2019-01-02T08:55:24.699Z,102996.67
2019-01-02T08:58:34.366Z,103007.33
2019-01-02T09:01:43.015Z,103006.97
2019-01-02T09:05:00.843Z,103016.95
2019-01-02T09:08:12.963Z,103019.14
2019-01-02T09:11:09.813Z,103025.49
2019-01-02T09:14:41.928Z,103036.41
2019-01-02T09:17:58.819Z,103037.05
2019-01-02T09:21:02.576Z,103043.16
2019-01-02T09:24:27.885Z,103049.78
2019-01-02T09:27:21.398Z,103067.63
2019-01-02T09:30:34.155Z,103061.05
2019-01-02T09:33:40.860Z,103064.58
2019-01-02T09:36:57.083Z,103072.94
2019-01-02T09:39:53.911Z,103083.91
2019-01-02T09:43:15.904Z,103086.09
2019-01-02T09:46:30.768Z,103093.25
2019-01-02T09:49:56.984Z,103097.31
2019-01-02T09:53:03.724Z,103093.73
2019-01-02T09:55:51.353Z,103091.11
2019-01-02T09:58:50.158Z,103102.05
2019-01-02T10:01:55.566Z,103097.73
2019-01-02T10:05:03.284Z,103106.11
2019-01-02T10:07:46.617Z,103104.95
2019-01-02T10:11:09.954Z,103112.53
2019-01-02T10:14:15.301Z,103114.84
2019-01-02T10:17:29.632Z,103115.41
2019-01-02T10:20:44.050Z,103114.39
2019-01-02T10:23:48.177Z,103120.16
2019-01-02T10:26:53.434Z,103118.09
2019-01-02T10:29:46.412Z,103137.04
2019-01-02T10:32:57.876Z,103123.72
2019-01-02T10:36:06.914Z,103125.63
2019-01-02T10:38:51.550Z,103127.70
2019-01-02T10:41:50.040Z,103127.08
2019-01-02T10:45:07.382Z,103142.88
2019-01-02T10:47:51.949Z,103148.69
2019-01-02T10:50:46.780Z,103146.75
2019-01-02T10:53:55.901Z,103147.64
2019-01-02T10:56:50.992Z,103150.00
2019-01-02T11:00:07.768Z,103138.64
2019-01-02T11:03:17.068Z,103148.56
2019-01-02T11:06:17.778Z,103160.39
2019-01-02T11:09:20.868Z,103147.20
2019-01-02T11:12:24.522Z,103134.94
2019-01-02T11:15:38.744Z,103150.48
2019-01-02T11:18:42.588Z,103155.79
2019-01-02T11:22:17.996Z,103157.20
2019-01-02T11:25:36.424Z,103154.58
2019-01-02T11:28:36.061Z,103167.64
2019-01-02T11:31:46.014Z,103152.74
2019-01-02T11:34:41.015Z,103150.39
2019-01-02T11:38:03.660Z,103148.95
2019-01-02T11:41:14.858Z,103156.62
2019-01-02T11:44:24.857Z,103165.91
2019-01-02T11:46:54.303Z,103170.91
2019-01-02T11:49:23.655Z,103154.41
2019-01-02T11:51:53.067Z,103168.13
2019-01-02T11:54:22.487Z,103163.20
2019-01-02T11:56:51.814Z,103160.34
2019-01-02T11:59:21.129Z,103159.95
2019-01-02T12:01:50.394Z,103158.15
2019-01-02T12:04:19.718Z,103166.01
2019-01-02T12:06:48.990Z,103165.44
2019-01-02T12:09:18.282Z,103161.17
2019-01-02T12:11:47.513Z,103164.44
2019-01-02T12:14:16.774Z,103166.10
2019-01-02T12:16:46.149Z,103169.45
2019-01-02T12:19:15.422Z,103171.51
2019-01-02T12:21:44.710Z,103168.06
2019-01-02T12:24:14.017Z,103170.24
2019-01-02T12:26:43.282Z,103167.69
2019-01-02T12:29:13.009Z,103172.77
2019-01-02T12:31:42.286Z,103172.77
2019-01-02T12:34:11.592Z,103169.84
2019-01-02T12:36:40.936Z,103164.08
2019-01-02T12:39:10.289Z,103164.08
2019-01-02T12:41:39.591Z,103178.47
2019-01-02T12:44:08.911Z,103184.02
2019-01-02T12:46:38.200Z,103189.86
2019-01-02T12:49:07.480Z,103188.80
2019-01-02T12:51:36.761Z,103186.16
2019-01-02T12:54:06.044Z,103192.91
2019-01-02T12:56:35.432Z,103200.70
2019-01-02T12:59:04.790Z,103199.09
2019-01-02T13:02:07.234Z,103210.54
2019-01-02T13:05:11.336Z,103209.34
2019-01-02T13:08:34.548Z,103215.88
2019-01-02T13:11:33.146Z,103214.62
2019-01-02T13:14:32.385Z,103218.02
2019-01-02T13:17:41.114Z,103220.23
2019-01-02T13:20:32.086Z,103218.82
2019-01-02T13:23:34.553Z,103216.16
2019-01-02T13:26:18.307Z,103212.72
2019-01-02T13:29:34.430Z,103407.92
2019-01-02T13:32:42.196Z,103243.20
2019-01-02T13:35:22.286Z,103236.91
2019-01-02T13:38:32.822Z,103242.27
2019-01-02T13:41:42.964Z,103242.27
2019-01-02T13:44:18.016Z,103241.09
2019-01-02T13:47:01.534Z,103241.09
2019-01-02T13:50:07.886Z,103249.39
2019-01-02T13:52:37.140Z,103251.16
2019-01-02T13:55:10.566Z,103259.80
2019-01-02T13:57:39.896Z,103257.63
2019-01-02T14:00:09.467Z,103261.28
2019-01-02T14:02:38.771Z,103261.02
2019-01-02T14:05:10.944Z,103276.43
2019-01-02T14:07:40.266Z,103273.33
2019-01-02T14:10:09.536Z,103278.03
2019-01-02T14:12:38.848Z,103273.34
2019-01-02T14:15:08.192Z,103277.90
2019-01-02T14:17:37.430Z,103273.41
2019-01-02T14:20:07.194Z,103273.41
2019-01-02T14:22:36.480Z,103267.66
2019-01-02T14:25:05.997Z,103276.81
2019-01-02T14:27:35.246Z,103278.13
2019-01-02T14:30:05.418Z,103278.13
2019-01-02T14:32:34.790Z,103276.37
2019-01-02T14:35:04.231Z,103276.37
2019-01-02T14:37:33.614Z,103289.16
2019-01-02T14:40:02.935Z,103295.30
2019-01-02T14:42:32.207Z,103295.64
2019-01-02T14:45:01.532Z,103309.97
2019-01-02T14:47:30.800Z,103303.14
2019-01-02T14:50:00.212Z,103301.52
2019-01-02T14:52:29.394Z,103312.97
2019-01-02T14:54:58.911Z,103316.70
2019-01-02T14:57:28.208Z,103316.49
2019-01-02T14:59:57.551Z,103321.58
2019-01-02T15:02:26.852Z,103334.56
2019-01-02T15:04:56.254Z,103328.92
2019-01-02T15:07:25.633Z,103338.02
2019-01-02T15:09:54.867Z,103332.64
2019-01-02T15:12:24.260Z,103337.47
2019-01-02T15:14:53.634Z,103347.34
2019-01-02T15:17:22.919Z,103350.43
2019-01-02T15:19:52.179Z,103359.45
2019-01-02T15:22:21.551Z,103352.95
2019-01-02T15:24:50.811Z,103358.36
2019-01-02T15:27:20.173Z,103359.52
2019-01-02T15:29:49.447Z,103361.41
2019-01-02T15:32:18.694Z,103369.95
2019-01-02T15:34:48.064Z,103366.78
2019-01-02T15:37:17.329Z,103378.50
2019-01-02T15:39:46.746Z,103376.04
2019-01-02T15:42:16.056Z,103384.52
2019-01-02T15:44:45.341Z,103375.09
2019-01-02T15:47:14.804Z,103385.47
2019-01-02T15:49:44.124Z,103380.33
2019-01-02T15:52:13.472Z,103387.91
2019-01-02T15:54:42.796Z,103391.80
2019-01-02T15:57:14.709Z,103392.52
2019-01-02T15:59:44.059Z,103389.55
2019-01-02T16:02:13.442Z,103400.33
2019-01-02T16:04:42.728Z,103400.52
2019-01-02T16:07:12.031Z,103395.14
2019-01-02T16:09:41.329Z,103405.89
2019-01-02T16:12:10.850Z,103401.52
2019-01-02T16:14:40.129Z,103414.91
2019-01-02T16:17:09.437Z,103413.53
2019-01-02T16:19:38.712Z,103416.89
2019-01-02T16:22:07.993Z,103419.01
2019-01-02T16:24:37.359Z,103422.15
2019-01-02T16:27:06.798Z,103430.80
2019-01-02T16:29:39.102Z,103434.09
2019-01-02T16:32:10.001Z,103432.74
2019-01-02T16:34:39.371Z,103438.86
2019-01-02T16:37:08.654Z,103446.63
2019-01-02T16:39:37.978Z,103447.02
2019-01-02T16:42:07.303Z,103444.44
2019-01-02T16:44:36.682Z,103450.66
2019-01-02T16:47:05.966Z,103455.78
2019-01-02T16:49:35.387Z,103461.67
2019-01-02T16:52:04.657Z,103467.28
2019-01-02T16:54:35.259Z,103465.55
2019-01-02T16:57:03.373Z,103467.56
2019-01-02T16:59:32.648Z,103467.52
2019-01-02T17:02:02.028Z,103469.95
2019-01-02T17:04:31.377Z,103468.75
2019-01-02T17:07:00.639Z,103470.02
2019-01-02T17:09:29.968Z,103478.02
2019-01-02T17:11:59.290Z,103488.78
2019-01-02T17:14:28.572Z,103479.41
2019-01-02T17:16:57.889Z,103484.13
2019-01-02T17:19:27.169Z,103479.29
2019-01-02T17:21:56.448Z,103493.12
2019-01-02T17:24:25.784Z,103492.05
2019-01-02T17:26:55.035Z,103490.51
2019-01-02T17:29:24.321Z,103499.92
2019-01-02T17:31:53.704Z,103492.08
2019-01-02T17:34:23.082Z,103500.30
2019-01-02T17:36:52.361Z,103494.34
2019-01-02T17:39:21.616Z,103497.84
2019-01-02T17:41:50.915Z,103495.87
2019-01-02T17:44:20.250Z,103503.70
2019-01-02T17:46:49.559Z,103507.58
2019-01-02T17:49:18.882Z,103499.67
2019-01-02T17:51:48.189Z,103511.65
2019-01-02T17:54:17.480Z,103512.36
2019-01-02T17:56:46.752Z,103511.70
2019-01-02T17:59:16.036Z,103508.46
2019-01-02T18:01:45.316Z,103515.75
2019-01-02T18:04:15.616Z,103515.95
2019-01-02T18:06:44.231Z,103516.92
2019-01-02T18:09:13.519Z,103520.00
2019-01-02T18:11:42.906Z,103524.63
2019-01-02T18:14:12.246Z,103526.62
2019-01-02T18:16:41.705Z,103528.39
2019-01-02T18:19:11.036Z,103524.30
2019-01-02T18:21:40.313Z,103532.82
2019-01-02T18:24:09.644Z,103540.91
2019-01-02T18:26:39.017Z,103538.72
2019-01-02T18:29:08.449Z,103541.06
2019-01-02T18:31:37.722Z,103544.84
2019-01-02T18:34:07.045Z,103545.21
2019-01-02T18:36:36.470Z,103546.15
2019-01-02T18:39:08.832Z,103555.81
2019-01-02T18:41:38.146Z,103549.95
2019-01-02T18:44:07.457Z,103556.86
2019-01-02T18:46:36.742Z,103558.72
2019-01-02T18:49:06.103Z,103559.39
2019-01-02T18:51:35.429Z,103557.12
2019-01-02T18:54:04.831Z,103566.77
2019-01-02T18:56:34.221Z,103565.59
2019-01-02T18:59:03.491Z,103570.09
2019-01-02T19:01:32.927Z,103570.09
2019-01-02T19:04:02.224Z,103562.46
2019-01-02T19:06:31.537Z,103566.38
2019-01-02T19:09:00.801Z,103571.81
2019-01-02T19:11:30.031Z,103572.44
2019-01-02T19:13:59.381Z,103581.91
2019-01-02T19:16:28.651Z,103584.05
2019-01-02T19:18:57.937Z,103587.62
2019-01-02T19:21:27.185Z,103589.14
2019-01-02T19:23:56.677Z,103584.41
2019-01-02T19:26:25.940Z,103589.68
2019-01-02T19:28:55.255Z,103591.55
2019-01-02T19:31:24.533Z,103591.05
2019-01-02T19:33:53.869Z,103599.58
2019-01-02T19:36:23.159Z,103595.53
2019-01-02T19:38:52.555Z,103592.70
2019-01-02T19:41:21.830Z,103593.30
2019-01-02T19:43:51.119Z,103597.22
2019-01-02T19:46:20.446Z,103597.08
2019-01-02T19:48:49.734Z,103594.42
2019-01-02T19:51:19.075Z,103593.05
2019-01-02T19:53:48.455Z,103595.15
2019-01-02T19:56:17.751Z,103587.73
2019-01-02T19:58:47.043Z,103599.90
2019-01-02T20:01:16.391Z,103592.91
2019-01-02T20:03:45.756Z,103598.92
2019-01-02T20:06:15.086Z,103594.88
2019-01-02T20:08:44.561Z,103594.52
2019-01-02T20:11:13.848Z,103594.82
2019-01-02T20:13:43.140Z,103592.32
2019-01-02T20:16:12.535Z,103588.08
2019-01-02T20:18:41.871Z,103598.84
2019-01-02T20:21:11.206Z,103590.04
2019-01-02T20:23:40.643Z,103592.04
2019-01-02T20:26:09.909Z,103591.34
2019-01-02T20:28:39.216Z,103589.77
2019-01-02T20:31:08.505Z,103588.23
2019-01-02T20:33:37.978Z,103589.53
2019-01-02T20:36:07.421Z,103589.71
2019-01-02T20:38:36.788Z,103589.10
2019-01-02T20:41:06.152Z,103585.63
2019-01-02T20:43:35.375Z,103590.09
2019-01-02T20:46:04.760Z,103588.32
2019-01-02T20:48:34.142Z,103586.13
2019-01-02T20:51:03.559Z,103590.56
2019-01-02T20:53:32.997Z,103588.23
2019-01-02T20:56:02.291Z,103585.06
2019-01-02T20:58:31.590Z,103587.89
2019-01-02T21:01:00.880Z,103586.78
2019-01-02T21:03:30.273Z,103584.45
2019-01-02T21:05:59.557Z,103589.39
2019-01-02T21:08:28.941Z,103603.17
2019-01-02T21:10:58.311Z,103576.13
2019-01-02T21:13:27.613Z,103586.28
2019-01-02T21:15:56.921Z,103584.92
2019-01-02T21:18:26.262Z,103587.58
2019-01-02T21:20:55.573Z,103594.41
2019-01-02T21:23:24.879Z,103592.80
2019-01-02T21:25:54.221Z,103586.88
2019-01-02T21:28:23.679Z,103589.16
2019-01-02T21:30:53.041Z,103595.48
2019-01-02T21:33:22.365Z,103590.50
2019-01-02T21:35:51.935Z,103591.10
2019-01-02T21:38:21.238Z,103596.64
2019-01-02T21:40:50.833Z,103594.12
2019-01-02T21:43:20.153Z,103589.51
2019-01-02T21:45:49.453Z,103589.92
2019-01-02T21:48:18.745Z,103589.42
2019-01-02T21:50:48.101Z,103590.81
2019-01-02T21:53:17.405Z,103594.99
2019-01-02T21:55:46.793Z,103601.14
2019-01-02T21:58:16.081Z,103591.47
2019-01-02T22:00:45.465Z,103593.27
2019-01-02T22:03:14.743Z,103588.23
2019-01-02T22:05:44.089Z,103582.14
2019-01-02T22:08:13.469Z,103583.50
2019-01-02T22:10:42.841Z,103577.73
2019-01-02T22:13:12.093Z,103574.89
2019-01-02T22:15:41.506Z,103570.80
2019-01-02T22:18:10.775Z,103572.13
2019-01-02T22:20:40.039Z,103538.78
2019-01-02T22:23:09.370Z,103572.23
2019-01-02T22:25:38.709Z,103570.48
2019-01-02T22:28:08.056Z,103569.92
2019-01-02T22:30:37.440Z,103569.98
2019-01-02T22:33:06.758Z,103571.10
2019-01-02T22:35:36.045Z,103560.03
2019-01-02T22:38:05.407Z,103570.48
2019-01-02T22:40:34.677Z,103572.84
2019-01-02T22:43:03.950Z,103578.91
2019-01-02T22:45:33.201Z,103571.19
2019-01-02T22:48:02.509Z,103575.67
2019-01-02T22:50:31.746Z,103580.00
2019-01-02T22:53:25.496Z,103581.83
2019-01-02T22:56:03.807Z,103575.64
2019-01-02T22:58:38.344Z,103582.98
2019-01-02T23:01:17.941Z,103586.97
2019-01-02T23:04:09.319Z,103575.25
2019-01-02T23:06:56.641Z,103580.55
2019-01-02T23:09:52.143Z,103576.30
2019-01-02T23:12:46.127Z,103581.92
2019-01-02T23:15:52.782Z,103580.00
2019-01-02T23:18:43.871Z,103578.53
2019-01-02T23:21:32.273Z,103578.69
2019-01-02T23:24:21.442Z,103570.95
2019-01-02T23:27:21.934Z,103572.09
2019-01-02T23:30:16.044Z,103358.27
2019-01-02T23:33:16.497Z,103591.71
2019-01-02T23:37:17.383Z,103595.30
2019-01-02T23:39:52.972Z,103594.78
2019-01-02T23:42:41.541Z,103602.02
2019-01-02T23:45:28.720Z,103603.73
2019-01-02T23:48:17.085Z,103607.16
2019-01-02T23:51:14.451Z,103610.49
2019-01-02T23:54:08.542Z,103606.81
2019-01-02T23:56:57.058Z,103600.25
2019-01-02T23:59:51.998Z,103612.02
